Time;durP1;ratioP1;P1;durP2;ratioP2;P2;SDS_P1;SDS_P2;PMS_P1;PMS_P2;Temp;Humidity;BMP_temperature;BMP_pressure;BME280_temperature;BME280_humidity;BME280_pressure;Samples;Min_cycle;Max_cycle;Signal;HPM_P1;HPM_P2
2024/03/13 00:01:10;;;;;;;7.70;4.10;;;10.20;90.10;;;;;;5072532;28;20197;-59
2024/03/13 00:03:37;;;;;;;4.20;3.50;;;10.20;90.10;;;;;;5069816;28;20209;-59
2024/03/13 00:06:05;;;;;;;6.80;3.97;;;10.20;89.70;;;;;;5071392;28;20201;-59
2024/03/13 00:08:32;;;;;;;7.83;4.17;;;10.00;89.70;;;;;;5073047;28;20205;-58
2024/03/13 00:10:59;;;;;;;4.67;3.53;;;10.00;90.00;;;;;;5073078;28;20570;-58
2024/03/13 00:13:28;;;;;;;5.50;3.63;;;9.90;90.00;;;;;;5071059;28;20261;-58
2024/03/13 00:15:57;;;;;;;6.20;3.73;;;9.90;90.00;;;;;;5072739;28;20277;-58
2024/03/13 00:18:25;;;;;;;7.17;4.43;;;9.80;90.20;;;;;;5072449;28;20211;-58
2024/03/13 00:20:52;;;;;;;5.00;3.93;;;9.80;90.40;;;;;;5073408;28;20258;-59
2024/03/13 00:23:19;;;;;;;5.27;4.20;;;9.70;90.30;;;;;;5071456;28;20549;-59
2024/03/13 00:25:46;;;;;;;6.43;3.90;;;9.60;90.40;;;;;;5072882;28;20208;-59
2024/03/13 00:28:13;;;;;;;6.13;4.33;;;9.60;90.50;;;;;;5071316;28;20204;-59
2024/03/13 00:30:40;;;;;;;6.57;4.53;;;9.50;90.60;;;;;;5072046;28;20213;-58
2024/03/13 00:33:08;;;;;;;5.27;4.30;;;9.50;90.80;;;;;;5071212;28;20206;-59
2024/03/13 00:35:36;;;;;;;4.60;3.97;;;9.50;90.90;;;;;;5073004;28;20234;-58
2024/03/13 00:38:03;;;;;;;5.27;4.20;;;9.50;91.10;;;;;;5070588;28;20203;-59
2024/03/13 00:40:32;;;;;;;7.40;4.50;;;9.50;91.10;;;;;;5071298;28;20212;-58
2024/03/13 00:42:59;;;;;;;4.80;4.10;;;9.50;91.20;;;;;;5069873;28;20215;-58
2024/03/13 00:45:27;;;;;;;8.37;4.77;;;9.40;91.20;;;;;;5072891;28;20308;-59
2024/03/13 00:47:54;;;;;;;7.57;4.00;;;9.40;91.40;;;;;;5072236;28;20215;-58
2024/03/13 00:50:22;;;;;;;8.43;4.30;;;9.40;91.60;;;;;;5071230;28;20215;-58
2024/03/13 00:52:50;;;;;;;6.80;4.43;;;9.30;91.30;;;;;;5070077;28;20285;-58
2024/03/13 00:55:17;;;;;;;7.87;4.87;;;9.20;91.20;;;;;;5072730;28;20311;-58
2024/03/13 00:57:46;;;;;;;6.67;5.70;;;9.20;91.40;;;;;;5072596;28;20850;-58
2024/03/13 01:00:18;;;;;;;6.20;4.40;;;9.10;91.60;;;;;;5070417;28;20250;-58
2024/03/13 01:02:45;;;;;;;6.73;4.60;;;9.10;91.80;;;;;;5071232;28;20589;-58
2024/03/13 01:05:16;;;;;;;5.73;4.60;;;9.10;92.00;;;;;;5072116;28;20510;-58
2024/03/13 01:07:48;;;;;;;8.57;4.73;;;9.10;92.20;;;;;;5072551;28;20579;-59
2024/03/13 01:10:16;;;;;;;5.90;4.27;;;9.10;92.20;;;;;;5069664;28;20204;-58
2024/03/13 01:12:43;;;;;;;8.00;5.37;;;9.10;92.20;;;;;;5067967;28;20209;-59
2024/03/13 01:15:14;;;;;;;5.47;4.83;;;9.10;92.30;;;;;;5067854;28;20208;-58
2024/03/13 01:17:42;;;;;;;7.23;4.97;;;9.20;92.40;;;;;;5070834;28;20195;-58
2024/03/13 01:20:15;;;;;;;9.53;5.17;;;9.20;92.40;;;;;;5071851;28;20219;-58
2024/03/13 01:22:43;;;;;;;6.80;4.50;;;9.20;92.40;;;;;;5066521;28;20208;-59
2024/03/13 01:25:11;;;;;;;6.07;4.30;;;9.20;92.40;;;;;;5069286;28;20205;-58
2024/03/13 01:27:40;;;;;;;6.47;3.90;;;9.20;92.40;;;;;;5072283;28;20233;-58
2024/03/13 01:30:08;;;;;;;7.00;4.20;;;9.10;92.50;;;;;;5070339;28;20228;-58
2024/03/13 01:32:37;;;;;;;5.03;4.27;;;9.10;92.70;;;;;;5070730;28;20640;-59
2024/03/13 01:35:06;;;;;;;6.17;3.90;;;9.10;92.40;;;;;;5071905;28;20269;-58
2024/03/13 01:40:25;;;;;;;6.30;4.43;;;9.00;92.40;;;;;;5069607;28;20637;-58
2024/03/13 01:57:12;;;;;;;6.87;4.50;;;8.70;92.60;;;;;;5072881;28;20228;-58
2024/03/13 02:02:38;;;;;;;5.07;4.27;;;8.70;92.80;;;;;;5075102;28;20223;-58
2024/03/13 02:05:06;;;;;;;5.17;4.40;;;8.60;92.80;;;;;;5075443;28;20573;-58
2024/03/13 02:07:33;;;;;;;5.93;4.50;;;8.60;92.80;;;;;;5075573;28;20292;-58
2024/03/13 02:10:04;;;;;;;5.33;4.33;;;8.50;92.90;;;;;;5072015;28;20211;-58
2024/03/13 02:12:31;;;;;;;5.03;3.93;;;8.50;93.00;;;;;;5074782;28;20203;-58
2024/03/13 02:14:58;;;;;;;6.60;4.77;;;8.50;93.10;;;;;;5075494;28;20194;-58
2024/03/13 02:17:26;;;;;;;6.73;4.20;;;8.50;93.20;;;;;;5074521;28;20232;-58
2024/03/13 02:19:55;;;;;;;6.33;4.57;;;8.50;93.30;;;;;;5073266;28;20277;-58
2024/03/13 02:22:22;;;;;;;5.83;5.10;;;8.50;93.30;;;;;;5073354;28;20511;-58
2024/03/13 02:24:49;;;;;;;9.47;5.30;;;8.50;93.30;;;;;;5075606;28;20205;-58
2024/03/13 02:27:18;;;;;;;4.87;3.93;;;8.50;93.30;;;;;;5076681;28;20306;-58
2024/03/13 02:29:47;;;;;;;4.40;3.83;;;8.50;93.40;;;;;;5075218;28;20211;-58
2024/03/13 02:32:14;;;;;;;7.70;4.80;;;8.50;93.40;;;;;;5073693;28;20512;-58
2024/03/13 02:34:43;;;;;;;6.53;4.63;;;8.50;93.40;;;;;;5075047;28;20214;-58
2024/03/13 02:37:11;;;;;;;6.17;5.03;;;8.40;93.40;;;;;;5072302;28;20295;-58
2024/03/13 02:39:39;;;;;;;6.73;4.13;;;8.40;93.40;;;;;;5071577;28;20191;-58
2024/03/13 02:42:09;;;;;;;6.63;4.10;;;8.40;93.40;;;;;;5073522;28;20217;-58
2024/03/13 02:44:36;;;;;;;5.63;4.50;;;8.40;93.40;;;;;;5073506;28;20592;-58
2024/03/13 02:47:04;;;;;;;5.50;4.80;;;8.40;93.50;;;;;;5074405;28;20202;-58
2024/03/13 02:49:31;;;;;;;5.07;4.20;;;8.40;93.60;;;;;;5072645;28;20206;-59
2024/03/13 02:51:58;;;;;;;5.77;4.27;;;8.40;93.70;;;;;;5072895;28;20194;-58
2024/03/13 02:54:26;;;;;;;6.87;5.13;;;8.30;93.80;;;;;;5073773;28;20490;-59
2024/03/13 02:56:53;;;;;;;7.60;5.67;;;8.40;93.90;;;;;;5072699;28;20271;-58
2024/03/13 02:59:20;;;;;;;5.33;4.60;;;8.40;93.90;;;;;;5073811;28;20238;-58
2024/03/13 03:01:52;;;;;;;5.87;4.47;;;8.40;93.90;;;;;;5072370;28;20202;-59
2024/03/13 03:04:19;;;;;;;5.90;5.30;;;8.40;93.70;;;;;;5070014;28;20205;-58
2024/03/13 03:06:46;;;;;;;7.67;5.67;;;8.40;93.70;;;;;;5072370;28;20261;-58
2024/03/13 03:09:14;;;;;;;9.17;7.10;;;8.40;93.70;;;;;;5069340;28;20309;-59
2024/03/13 03:11:44;;;;;;;9.60;7.57;;;8.40;93.90;;;;;;5074419;28;20625;-59
2024/03/13 03:14:12;;;;;;;8.00;6.60;;;8.40;94.00;;;;;;5069484;28;20200;-58
2024/03/13 03:16:39;;;;;;;8.67;6.73;;;8.40;94.10;;;;;;5069390;28;20215;-58
2024/03/13 03:19:06;;;;;;;8.30;6.97;;;8.40;94.20;;;;;;5071479;28;20220;-58
2024/03/13 03:21:34;;;;;;;7.60;5.23;;;8.50;94.20;;;;;;5071371;28;20210;-58
2024/03/13 03:24:02;;;;;;;8.10;5.50;;;8.50;94.30;;;;;;5073185;28;20623;-58
2024/03/13 03:26:29;;;;;;;7.00;5.77;;;8.50;94.30;;;;;;5073266;28;20186;-59
2024/03/13 03:28:56;;;;;;;7.37;5.90;;;8.40;94.30;;;;;;5073604;28;20219;-58
2024/03/13 03:31:23;;;;;;;5.97;5.17;;;8.40;94.30;;;;;;5072767;28;20221;-59
2024/03/13 03:33:51;;;;;;;5.97;5.03;;;8.40;94.40;;;;;;5073237;28;20206;-58
2024/03/13 03:36:20;;;;;;;8.57;6.13;;;8.40;94.40;;;;;;5071935;28;20268;-58
2024/03/13 03:38:48;;;;;;;5.80;5.30;;;8.30;94.40;;;;;;5087813;28;20289;-59
2024/03/13 03:41:16;;;;;;;6.23;5.00;;;8.30;94.40;;;;;;5072487;28;20625;-58
2024/03/13 03:43:43;;;;;;;6.90;6.20;;;8.20;94.40;;;;;;5074975;28;20229;-58
2024/03/13 03:46:14;;;;;;;5.67;5.07;;;8.20;94.40;;;;;;5088109;28;20529;-58
2024/03/13 03:48:42;;;;;;;7.00;5.13;;;8.20;94.50;;;;;;5068739;28;20226;-59
2024/03/13 03:51:16;;;;;;;5.97;5.10;;;8.10;94.60;;;;;;5073495;28;20292;-59
2024/03/13 03:53:45;;;;;;;7.50;5.27;;;8.10;94.60;;;;;;5071942;28;20218;-58
2024/03/13 03:56:16;;;;;;;6.90;5.50;;;8.10;94.50;;;;;;5073508;28;20210;-58
2024/03/13 03:58:43;;;;;;;9.03;6.23;;;8.00;94.50;;;;;;5071688;28;20516;-58
2024/03/13 04:01:10;;;;;;;8.20;6.07;;;7.90;94.60;;;;;;5071099;28;20203;-58
2024/03/13 04:03:37;;;;;;;5.90;5.20;;;7.90;94.70;;;;;;5070304;28;20206;-58
2024/03/13 04:06:04;;;;;;;6.63;5.37;;;7.90;94.80;;;;;;5073287;28;20237;-58
2024/03/13 04:08:31;;;;;;;5.73;4.90;;;7.90;94.80;;;;;;5069847;28;20232;-58
2024/03/13 04:10:59;;;;;;;8.73;6.20;;;7.90;94.80;;;;;;5069866;28;20205;-59
2024/03/13 04:13:26;;;;;;;10.17;6.30;;;7.90;94.90;;;;;;5068843;28;20633;-58
2024/03/13 04:15:54;;;;;;;8.57;6.70;;;7.90;95.00;;;;;;5071517;28;20215;-58
2024/03/13 04:18:21;;;;;;;10.30;6.80;;;7.90;95.00;;;;;;5069891;28;20298;-58
2024/03/13 04:20:49;;;;;;;10.10;7.27;;;7.90;95.10;;;;;;5069748;28;20214;-58
2024/03/13 04:23:16;;;;;;;9.50;7.03;;;8.00;95.20;;;;;;5069027;28;20298;-58
2024/03/13 04:25:44;;;;;;;8.73;7.50;;;8.00;95.20;;;;;;5071397;28;20229;-58
2024/03/13 04:28:11;;;;;;;10.03;7.40;;;8.00;95.30;;;;;;5070936;28;20203;-58
2024/03/13 04:30:41;;;;;;;9.23;7.13;;;8.00;95.60;;;;;;5072643;28;20612;-58
2024/03/13 04:33:08;;;;;;;10.37;7.90;;;8.10;95.40;;;;;;5071851;28;20255;-58
2024/03/13 04:35:36;;;;;;;13.13;8.13;;;8.10;95.40;;;;;;5072454;28;20206;-59
2024/03/13 04:38:04;;;;;;;10.87;8.53;;;8.10;95.50;;;;;;5071525;28;20254;-58
2024/03/13 04:40:31;;;;;;;11.53;8.73;;;8.10;95.50;;;;;;5071746;28;20211;-58
2024/03/13 04:43:00;;;;;;;11.97;6.20;;;8.10;95.60;;;;;;5070060;28;20524;-58
2024/03/13 04:45:27;;;;;;;7.70;5.47;;;8.10;95.60;;;;;;5072470;28;20198;-58
2024/03/13 04:47:54;;;;;;;9.07;7.33;;;8.10;95.50;;;;;;5062659;28;20629;-58
2024/03/13 04:50:21;;;;;;;10.03;7.33;;;8.10;95.40;;;;;;5071000;28;20202;-58
2024/03/13 04:52:48;;;;;;;9.23;6.90;;;8.00;95.30;;;;;;5070935;28;20667;-58
2024/03/13 04:55:15;;;;;;;8.67;7.07;;;8.00;95.40;;;;;;5072837;28;20233;-58
2024/03/13 04:57:43;;;;;;;9.07;6.77;;;8.00;95.50;;;;;;5071517;28;20241;-58
2024/03/13 05:00:11;;;;;;;9.77;8.20;;;8.00;95.60;;;;;;5069649;28;20231;-58
2024/03/13 05:02:38;;;;;;;13.07;9.50;;;8.00;95.70;;;;;;5067898;28;20233;-59
2024/03/13 05:05:20;;;;;;;9.03;8.13;;;8.00;95.80;;;;;;5071754;28;20195;-58
2024/03/13 05:07:47;;;;;;;11.80;7.37;;;8.00;95.90;;;;;;5071506;28;20226;-58
2024/03/13 05:10:16;;;;;;;8.43;7.10;;;8.10;96.00;;;;;;5069362;28;20275;-58
2024/03/13 05:12:46;;;;;;;9.73;8.13;;;8.10;95.80;;;;;;5072106;28;20622;-58
2024/03/13 05:15:14;;;;;;;11.80;8.90;;;8.00;95.80;;;;;;5068290;28;20253;-58
2024/03/13 05:17:41;;;;;;;14.27;9.33;;;8.00;95.80;;;;;;5070018;28;20221;-58
2024/03/13 05:20:11;;;;;;;11.47;8.67;;;8.00;95.90;;;;;;5070275;28;20219;-59
2024/03/13 05:22:38;;;;;;;10.70;8.57;;;8.00;96.10;;;;;;5070494;28;20195;-59
2024/03/13 05:25:10;;;;;;;12.93;10.03;;;8.00;96.30;;;;;;5071319;28;20260;-58
2024/03/13 05:27:38;;;;;;;11.10;8.93;;;8.10;96.40;;;;;;5069621;28;20194;-58
2024/03/13 05:30:06;;;;;;;15.03;9.93;;;8.10;96.50;;;;;;5069983;28;20197;-58
2024/03/13 05:32:33;;;;;;;11.43;8.57;;;8.20;96.60;;;;;;5069997;28;20211;-58
2024/03/13 05:35:00;;;;;;;12.97;9.43;;;8.20;96.70;;;;;;5071587;28;20244;-58
2024/03/13 05:37:28;;;;;;;10.63;8.47;;;8.30;96.70;;;;;;5071455;28;20317;-58
2024/03/13 05:39:57;;;;;;;12.87;10.23;;;8.30;96.80;;;;;;5071143;28;20209;-58
2024/03/13 05:42:24;;;;;;;10.37;8.50;;;8.30;96.80;;;;;;5069556;28;20194;-58
2024/03/13 05:44:51;;;;;;;12.60;9.67;;;8.40;96.90;;;;;;5070971;28;20645;-58
2024/03/13 05:47:20;;;;;;;12.27;10.90;;;8.40;96.90;;;;;;5070033;28;20676;-58
2024/03/13 05:49:47;;;;;;;15.03;11.00;;;8.50;96.90;;;;;;5071619;28;20195;-58
2024/03/13 05:52:14;;;;;;;13.87;9.93;;;8.50;97.00;;;;;;5071684;28;20199;-58
2024/03/13 05:54:41;;;;;;;11.90;9.90;;;8.60;97.00;;;;;;5069496;28;20281;-58
2024/03/13 05:57:09;;;;;;;12.80;9.30;;;8.60;97.10;;;;;;5069524;28;20515;-58
2024/03/13 05:59:37;;;;;;;17.03;12.20;;;8.60;97.10;;;;;;5069717;28;20239;-58
2024/03/13 06:02:05;;;;;;;16.63;12.37;;;8.60;97.10;;;;;;5076591;28;20201;-58
2024/03/13 06:04:33;;;;;;;13.50;11.47;;;8.60;97.20;;;;;;5068427;28;20226;-59
2024/03/13 06:07:04;;;;;;;14.47;10.63;;;8.70;97.20;;;;;;5069908;28;20203;-58
2024/03/13 06:09:31;;;;;;;17.80;12.80;;;8.70;97.20;;;;;;5071162;28;20203;-58
2024/03/13 06:11:58;;;;;;;18.43;12.37;;;8.70;97.30;;;;;;5069133;28;20202;-58
2024/03/13 06:14:25;;;;;;;17.30;13.47;;;8.70;97.30;;;;;;5070643;28;20583;-58
2024/03/13 06:16:52;;;;;;;18.87;14.73;;;8.80;97.30;;;;;;5069321;28;20214;-58
2024/03/13 06:19:19;;;;;;;19.77;13.57;;;8.80;97.30;;;;;;5083970;28;20200;-58
2024/03/13 06:21:47;;;;;;;18.00;13.33;;;8.90;97.40;;;;;;5067887;28;20201;-59
2024/03/13 06:24:20;;;;;;;18.40;13.30;;;8.90;97.40;;;;;;5071113;28;20195;-58
2024/03/13 06:26:48;;;;;;;17.73;14.27;;;8.90;97.40;;;;;;5069775;28;20273;-58
2024/03/13 06:32:03;;;;;;;18.50;14.57;;;9.00;97.50;;;;;;5071781;28;20291;-58
2024/03/13 06:34:30;;;;;;;22.53;16.13;;;9.10;97.40;;;;;;5075226;28;20206;-58
2024/03/13 06:37:01;;;;;;;23.50;17.13;;;9.10;97.50;;;;;;5071578;28;20212;-58
2024/03/13 06:39:29;;;;;;;27.07;18.57;;;9.10;97.50;;;;;;5073998;28;20203;-58
2024/03/13 06:41:56;;;;;;;26.70;19.73;;;9.20;97.60;;;;;;5070521;28;20220;-58
2024/03/13 06:44:23;;;;;;;21.17;17.10;;;9.20;97.70;;;;;;5072203;28;20201;-58
2024/03/13 06:46:53;;;;;;;23.73;16.63;;;9.30;97.90;;;;;;5071910;28;20295;-60
2024/03/13 06:49:20;;;;;;;24.87;17.80;;;9.30;97.90;;;;;;5072658;28;20212;-58
2024/03/13 06:51:47;;;;;;;25.17;17.83;;;9.40;98.00;;;;;;5073104;28;20600;-59
2024/03/13 06:54:14;;;;;;;26.23;19.50;;;9.50;98.20;;;;;;5073548;28;20207;-59
2024/03/13 06:56:43;;;;;;;28.90;21.30;;;9.60;98.20;;;;;;5073001;28;20203;-58
2024/03/13 06:59:15;;;;;;;38.53;24.00;;;9.70;98.20;;;;;;5070584;28;20570;-59
2024/03/13 07:01:42;;;;;;;34.30;23.20;;;9.80;98.20;;;;;;5072066;28;20283;-59
2024/03/13 07:04:09;;;;;;;40.57;24.37;;;9.80;98.20;;;;;;5073986;28;20199;-59
2024/03/13 07:06:36;;;;;;;37.57;23.90;;;9.80;98.20;;;;;;5071403;28;20204;-58
2024/03/13 07:09:03;;;;;;;54.07;26.07;;;9.90;98.40;;;;;;5073812;28;20200;-59
2024/03/13 07:11:31;;;;;;;39.53;25.17;;;9.90;98.50;;;;;;5072033;28;20195;-59
2024/03/13 07:13:58;;;;;;;39.43;24.50;;;9.90;98.60;;;;;;5070370;28;20216;-58
2024/03/13 07:16:25;;;;;;;49.43;23.20;;;10.00;98.70;;;;;;5073229;28;20262;-58
2024/03/13 07:18:52;;;;;;;52.23;23.27;;;10.00;98.90;;;;;;5073104;28;20817;-59
2024/03/13 07:21:21;;;;;;;65.90;23.33;;;10.10;99.10;;;;;;5069341;28;20260;-58
2024/03/13 07:23:48;;;;;;;44.30;22.23;;;10.10;99.20;;;;;;5073101;28;20203;-58
2024/03/13 07:26:15;;;;;;;52.40;22.27;;;10.10;99.40;;;;;;5073871;28;20216;-59
2024/03/13 07:28:42;;;;;;;30.63;22.57;;;10.20;99.40;;;;;;5073728;28;20525;-58
2024/03/13 07:31:09;;;;;;;34.90;22.73;;;10.20;99.50;;;;;;5073246;28;20649;-58
2024/03/13 07:33:38;;;;;;;45.23;21.90;;;10.20;99.70;;;;;;5070557;28;20206;-58
2024/03/13 07:36:07;;;;;;;46.57;21.50;;;10.20;99.70;;;;;;5065702;28;20302;-58
2024/03/13 07:38:36;;;;;;;38.90;22.67;;;10.30;99.90;;;;;;5073205;28;20236;-58
2024/03/13 07:41:12;;;;;;;52.40;23.10;;;10.30;99.90;;;;;;5070659;28;20547;-59
2024/03/13 07:43:39;;;;;;;40.80;23.27;;;10.30;99.90;;;;;;5070492;28;20713;-58
2024/03/13 07:46:09;;;;;;;40.83;23.57;;;10.30;99.90;;;;;;5070074;28;20254;-58
2024/03/13 07:48:37;;;;;;;45.50;23.80;;;10.30;99.90;;;;;;5073405;28;20216;-58
2024/03/13 07:51:08;;;;;;;48.90;23.13;;;10.40;99.90;;;;;;5072507;28;20208;-59
2024/03/13 07:53:35;;;;;;;35.60;23.47;;;10.50;99.90;;;;;;5070981;28;20204;-59
2024/03/13 07:56:03;;;;;;;39.93;25.10;;;10.50;99.90;;;;;;5071993;28;20198;-59
2024/03/13 07:58:31;;;;;;;31.50;23.17;;;10.60;99.90;;;;;;5073239;28;20208;-59
2024/03/13 08:00:58;;;;;;;34.33;23.43;;;10.60;99.90;;;;;;5072030;28;20640;-59
2024/03/13 08:03:25;;;;;;;31.47;22.67;;;10.70;99.90;;;;;;5072047;28;20194;-58
2024/03/13 08:05:55;;;;;;;31.33;22.57;;;10.70;99.90;;;;;;5069465;28;20213;-59
2024/03/13 08:08:39;;;;;;;39.13;24.77;;;10.80;99.90;;;;;;5072613;28;20181;-59
2024/03/13 08:11:24;;;;;;;31.77;22.93;;;10.70;99.90;;;;;;5067963;28;20204;-59
2024/03/13 08:14:10;;;;;;;35.53;23.67;;;10.80;99.90;;;;;;5072792;28;20189;-58
2024/03/13 08:16:54;;;;;;;35.47;23.97;;;10.80;99.90;;;;;;5068054;28;20200;-58
2024/03/13 08:19:39;;;;;;;35.23;24.17;;;10.80;99.90;;;;;;5066628;28;20548;-58
2024/03/13 08:22:24;;;;;;;36.53;24.03;;;10.80;99.90;;;;;;5069109;28;20193;-59
2024/03/13 08:25:16;;;;;;;35.90;25.63;;;10.90;99.90;;;;;;5069025;28;20184;-58
2024/03/13 08:28:00;;;;;;;38.13;24.80;;;10.90;99.90;;;;;;5072430;28;20573;-59
2024/03/13 08:30:46;;;;;;;36.23;24.40;;;11.00;99.90;;;;;;5069997;28;20551;-59
2024/03/13 08:33:33;;;;;;;29.23;22.17;;;11.10;99.90;;;;;;5068149;28;20193;-58
2024/03/13 08:36:18;;;;;;;30.40;22.67;;;11.10;99.90;;;;;;5071631;28;20185;-59
2024/03/13 08:39:02;;;;;;;31.50;22.23;;;11.20;99.90;;;;;;5071668;28;20226;-59
2024/03/13 08:41:47;;;;;;;36.20;25.33;;;11.30;99.90;;;;;;5069399;28;20258;-59
2024/03/13 08:44:32;;;;;;;31.30;23.43;;;11.30;99.90;;;;;;5069688;28;20188;-59
2024/03/13 08:47:18;;;;;;;30.60;21.87;;;11.40;99.90;;;;;;5072559;28;20184;-59
2024/03/13 08:50:03;;;;;;;26.93;20.50;;;11.50;99.90;;;;;;5068107;28;20194;-59
2024/03/13 08:52:48;;;;;;;27.77;20.37;;;11.50;99.90;;;;;;5071524;28;20192;-58
2024/03/13 08:55:34;;;;;;;26.90;21.17;;;11.60;99.90;;;;;;5070844;28;20181;-59
2024/03/13 08:58:20;;;;;;;30.67;21.93;;;11.70;99.90;;;;;;5071408;28;20197;-59
2024/03/13 09:01:07;;;;;;;29.87;21.67;;;11.70;99.90;;;;;;5071820;28;20636;-59
2024/03/13 09:03:53;;;;;;;26.27;20.13;;;11.70;99.90;;;;;;5070083;28;20264;-59
2024/03/13 09:06:40;;;;;;;27.40;19.90;;;11.80;99.80;;;;;;5068811;28;20741;-59
2024/03/13 09:09:07;;;;;;;25.03;19.23;;;11.80;99.70;;;;;;5068898;28;20220;-59
2024/03/13 09:11:35;;;;;;;25.57;18.57;;;11.90;99.60;;;;;;5070111;28;20209;-59
2024/03/13 09:14:03;;;;;;;24.63;18.87;;;11.90;99.50;;;;;;5069477;28;20201;-59
2024/03/13 09:16:35;;;;;;;25.30;18.97;;;12.00;99.40;;;;;;5069148;28;20760;-59
2024/03/13 09:19:03;;;;;;;25.23;18.45;;;12.00;99.20;;;;;;5069005;28;20415;-60
2024/03/13 09:21:31;;;;;;;26.73;17.80;;;12.10;99.10;;;;;;5070809;28;20643;-60
2024/03/13 09:23:58;;;;;;;24.67;16.77;;;12.10;98.90;;;;;;5069639;28;20202;-58
2024/03/13 09:26:26;;;;;;;27.70;17.70;;;12.20;98.70;;;;;;5071452;28;20641;-59
2024/03/13 09:28:55;;;;;;;22.77;18.37;;;12.20;98.30;;;;;;5072333;28;20294;-59
2024/03/13 09:31:24;;;;;;;25.50;17.73;;;12.20;98.10;;;;;;5086728;28;20325;-58
2024/03/13 09:33:52;;;;;;;21.70;17.70;;;12.20;98.00;;;;;;5072333;28;20203;-60
2024/03/13 09:36:19;;;;;;;19.83;16.17;;;12.30;97.80;;;;;;5070348;28;20201;-59
2024/03/13 09:38:46;;;;;;;23.20;16.87;;;12.30;97.60;;;;;;5071573;28;20250;-60
2024/03/13 09:41:14;;;;;;;22.93;16.90;;;12.40;97.50;;;;;;5072043;28;20190;-61
2024/03/13 09:43:41;;;;;;;20.63;17.30;;;12.40;97.40;;;;;;5071883;28;20207;-60
2024/03/13 09:46:09;;;;;;;21.83;16.23;;;12.50;97.30;;;;;;5070203;28;20204;-58
2024/03/13 09:48:42;;;;;;;22.17;16.63;;;12.50;97.20;;;;;;5067750;28;20242;-60
2024/03/13 09:51:11;;;;;;;20.13;15.63;;;12.60;96.90;;;;;;5070937;28;20640;-59
2024/03/13 09:53:41;;;;;;;20.50;16.43;;;12.70;96.80;;;;;;5071911;28;20236;-60
2024/03/13 09:56:13;;;;;;;20.83;16.30;;;12.80;96.60;;;;;;5069642;28;20201;-60
2024/03/13 09:58:46;;;;;;;21.27;15.07;;;12.80;96.50;;;;;;5069726;28;20224;-59
2024/03/13 10:01:27;;;;;;;23.40;17.83;;;12.90;96.50;;;;;;5071347;28;20391;-59
2024/03/13 10:04:10;;;;;;;21.03;16.27;;;12.90;96.40;;;;;;5070454;28;20233;-59
2024/03/13 10:06:39;;;;;;;21.10;15.50;;;13.00;96.30;;;;;;5072394;28;20615;-59
2024/03/13 10:09:12;;;;;;;19.00;14.53;;;13.00;96.20;;;;;;5073966;28;20407;-60
2024/03/13 10:11:44;;;;;;;20.87;15.10;;;13.00;96.30;;;;;;5073652;28;20202;-59
2024/03/13 10:14:12;;;;;;;20.23;14.30;;;13.10;96.10;;;;;;5075463;28;20200;-59
2024/03/13 10:16:43;;;;;;;19.90;16.50;;;13.20;96.00;;;;;;5072732;28;20507;-59
2024/03/13 10:19:17;;;;;;;19.17;15.33;;;13.30;95.90;;;;;;5075545;28;20213;-59
2024/03/13 10:21:47;;;;;;;19.37;16.20;;;13.40;95.60;;;;;;5070761;28;20219;-59
2024/03/13 10:24:16;;;;;;;21.43;16.93;;;13.40;95.60;;;;;;5073634;28;20714;-59
2024/03/13 10:26:46;;;;;;;22.57;17.37;;;13.50;95.30;;;;;;5072251;28;20612;-59
2024/03/13 10:29:13;;;;;;;20.80;16.83;;;13.50;95.00;;;;;;5074744;28;20289;-58
2024/03/13 10:31:42;;;;;;;22.17;16.87;;;13.50;95.00;;;;;;5070777;28;20685;-59
2024/03/13 10:34:09;;;;;;;18.70;15.37;;;13.60;95.20;;;;;;5074024;28;20232;-59
2024/03/13 10:36:39;;;;;;;22.03;15.67;;;13.70;95.30;;;;;;5072650;28;20205;-59
2024/03/13 10:39:08;;;;;;;19.10;15.87;;;13.80;95.20;;;;;;5072311;28;20232;-59
2024/03/13 10:41:36;;;;;;;20.93;16.20;;;13.90;94.80;;;;;;5074149;28;20206;-60
2024/03/13 10:44:04;;;;;;;24.27;16.77;;;14.00;94.60;;;;;;5072912;28;20234;-59
2024/03/13 10:46:32;;;;;;;19.60;15.10;;;14.00;94.40;;;;;;5071305;28;20199;-60
2024/03/13 10:49:05;;;;;;;19.00;15.73;;;14.00;94.10;;;;;;5072530;28;20201;-60
2024/03/13 10:51:33;;;;;;;19.83;14.90;;;14.00;94.00;;;;;;5071193;28;20194;-60
2024/03/13 10:54:04;;;;;;;21.87;15.63;;;14.00;93.80;;;;;;5071522;28;20194;-59
2024/03/13 10:56:31;;;;;;;19.07;15.23;;;14.10;93.80;;;;;;5074533;28;20219;-59
2024/03/13 10:58:58;;;;;;;18.87;14.73;;;14.10;93.60;;;;;;5072452;28;20678;-59
2024/03/13 11:01:33;;;;;;;19.07;14.87;;;14.20;93.50;;;;;;5072973;28;20195;-59
2024/03/13 11:04:01;;;;;;;21.10;16.13;;;14.30;93.40;;;;;;5060607;28;20278;-59
2024/03/13 11:06:28;;;;;;;18.90;15.60;;;14.40;93.30;;;;;;5071024;28;20206;-60
2024/03/13 11:08:57;;;;;;;19.23;14.97;;;14.60;93.30;;;;;;5072852;28;20212;-60
2024/03/13 11:11:26;;;;;;;19.77;14.27;;;14.70;92.80;;;;;;5072857;28;20267;-59
2024/03/13 11:13:58;;;;;;;16.13;13.17;;;14.70;92.40;;;;;;5071629;28;20212;-60
2024/03/13 11:16:28;;;;;;;17.77;12.77;;;14.80;92.10;;;;;;5074148;28;20202;-58
2024/03/13 11:18:56;;;;;;;18.53;12.87;;;14.90;91.50;;;;;;5073389;28;20222;-60
2024/03/13 11:21:34;;;;;;;16.83;11.23;;;15.00;91.10;;;;;;5070017;28;20297;-60
2024/03/13 11:24:05;;;;;;;16.33;12.60;;;15.10;90.80;;;;;;5072245;28;20292;-58
2024/03/13 11:26:38;;;;;;;16.27;11.77;;;15.20;90.30;;;;;;5072220;28;20194;-59
2024/03/13 11:29:06;;;;;;;16.77;12.23;;;15.30;90.30;;;;;;5073897;28;20198;-59
2024/03/13 11:31:36;;;;;;;20.53;13.03;;;15.30;90.00;;;;;;5072443;28;20289;-59
2024/03/13 11:34:04;;;;;;;16.60;13.13;;;15.30;89.60;;;;;;5073629;28;20216;-59
2024/03/13 11:36:32;;;;;;;16.40;13.27;;;15.40;89.90;;;;;;5070357;28;20214;-59
2024/03/13 11:38:59;;;;;;;17.00;13.80;;;15.40;89.80;;;;;;5073413;28;20238;-60
2024/03/13 11:41:27;;;;;;;20.73;14.23;;;15.40;89.60;;;;;;5071417;28;20238;-60
2024/03/13 11:43:56;;;;;;;17.47;12.63;;;15.40;89.60;;;;;;5073088;28;20199;-60
2024/03/13 11:46:33;;;;;;;15.00;12.43;;;15.30;89.90;;;;;;5072283;28;20196;-59
2024/03/13 11:49:03;;;;;;;13.57;12.13;;;15.30;90.10;;;;;;5071053;28;20212;-59
2024/03/13 11:51:35;;;;;;;18.13;13.20;;;15.30;90.00;;;;;;5073383;28;20194;-60
2024/03/13 11:54:12;;;;;;;16.50;12.83;;;15.40;89.70;;;;;;5071655;28;20206;-60
2024/03/13 11:56:40;;;;;;;17.33;14.83;;;15.40;89.10;;;;;;5073800;28;20197;-59
2024/03/13 11:59:08;;;;;;;21.13;14.27;;;15.40;89.50;;;;;;5071122;28;20270;-59
2024/03/13 12:01:35;;;;;;;18.43;14.13;;;15.50;89.90;;;;;;5072193;28;20188;-60
2024/03/13 12:04:05;;;;;;;15.30;13.07;;;15.70;90.00;;;;;;5072991;28;20249;-60
2024/03/13 12:06:37;;;;;;;15.03;12.77;;;15.90;89.40;;;;;;5070878;28;20218;-60
2024/03/13 12:09:09;;;;;;;17.07;14.00;;;16.00;88.30;;;;;;5068454;28;20206;-59
2024/03/13 12:11:37;;;;;;;21.53;14.97;;;16.10;87.90;;;;;;5074681;28;20638;-60
2024/03/13 12:14:05;;;;;;;17.20;13.93;;;16.10;87.50;;;;;;5070638;28;20777;-60
2024/03/13 12:16:33;;;;;;;19.70;14.27;;;16.20;87.50;;;;;;5078377;28;20285;-60
2024/03/13 12:19:02;;;;;;;15.97;13.40;;;16.30;87.00;;;;;;5071401;28;20746;-59
2024/03/13 12:21:30;;;;;;;17.03;13.53;;;16.30;86.50;;;;;;5068348;28;20337;-59
2024/03/13 12:23:58;;;;;;;16.13;14.17;;;16.30;86.50;;;;;;5072143;28;20241;-59
2024/03/13 12:26:26;;;;;;;21.97;14.77;;;16.40;86.30;;;;;;5071710;28;20240;-60
2024/03/13 12:28:56;;;;;;;18.57;14.13;;;16.60;85.50;;;;;;5070321;28;20623;-59
2024/03/13 12:31:24;;;;;;;19.23;14.97;;;16.70;84.60;;;;;;5070312;28;20261;-59
2024/03/13 12:33:58;;;;;;;15.87;14.10;;;16.70;84.20;;;;;;5070966;28;20214;-60
2024/03/13 12:36:27;;;;;;;18.80;14.50;;;16.80;83.80;;;;;;5071975;28;20191;-60
2024/03/13 12:38:57;;;;;;;16.30;14.23;;;16.80;83.50;;;;;;5072662;28;20322;-59
2024/03/13 12:41:24;;;;;;;18.50;13.10;;;16.80;83.80;;;;;;5071935;28;20272;-59
2024/03/13 12:43:52;;;;;;;16.23;13.80;;;16.80;84.10;;;;;;5071706;28;20206;-59
2024/03/13 12:46:19;;;;;;;15.73;13.77;;;16.80;84.70;;;;;;5069457;28;20580;-59
2024/03/13 12:48:47;;;;;;;19.67;13.43;;;16.90;84.70;;;;;;5071503;28;20225;-59
2024/03/13 12:51:16;;;;;;;16.97;13.37;;;17.00;84.40;;;;;;5084578;28;20214;-60
2024/03/13 12:53:44;;;;;;;17.93;13.57;;;17.20;83.90;;;;;;5072440;28;21057;-60
2024/03/13 12:56:13;;;;;;;19.17;13.63;;;17.40;83.00;;;;;;5070838;28;20233;-60
2024/03/13 12:58:40;;;;;;;20.33;13.43;;;17.40;81.50;;;;;;5071982;28;20230;-59
2024/03/13 13:01:08;;;;;;;14.77;11.73;;;17.50;81.50;;;;;;5070657;28;20257;-60
2024/03/13 13:03:36;;;;;;;16.30;12.90;;;17.50;80.70;;;;;;5071413;28;20195;-60
2024/03/13 13:06:12;;;;;;;14.80;12.60;;;17.50;79.10;;;;;;5072037;28;20200;-60
2024/03/13 13:08:41;;;;;;;16.13;12.73;;;17.60;79.20;;;;;;5070494;28;20288;-60
2024/03/13 13:11:11;;;;;;;15.03;13.10;;;17.60;79.40;;;;;;5069413;28;20716;-60
2024/03/13 13:13:38;;;;;;;14.93;11.93;;;17.70;79.10;;;;;;5070303;28;20310;-59
2024/03/13 13:16:09;;;;;;;13.43;11.43;;;17.80;78.00;;;;;;5069572;28;20206;-61